Airport details for: LMML (Malta)

Metar

LMML 270815Z 32014KT 9999 FEW029 27/18 Q1013 NOSIG

General details

ICAO: LMML
IATA: LMA
Name (city): Luqa
Major:
Country: Malta
vACC: vACC Italy
Description:

Malta International Airport (Luqa Airport)

Scenery links:
FS9 scenery: Download
FSX/P3D scenery: Download
XP scenery:
Elevation: 300 ft.
Transition altitude: 5000 ft.
MSA: 11600 ft.
Latitude: 35.857542
Longitude: 14.477439
LMML Charts
LMML Notams
LMML Online stations

Runways

Number Course Length Elevation Lat Lon ILS ILS freq ILS FAC GP
05 52° 7799ft / 2377 m 297ft 35.847475 14.460078 - - 3.0°
13 132° 11627ft / 3544 m 256ft 35.856425 14.478822 109.7 132° 3.0°
23 232° 7799ft / 2377 m 247ft 35.85992 14.481536 - - 3.0°
31 312° 11627ft / 3544 m 230ft 35.835139 14.505197 110.5 312° 3.0°